Time;durP1;ratioP1;P1;durP2;ratioP2;P2;SDS_P1;SDS_P2;PMS_P1;PMS_P2;Temp;Humidity;BMP_temperature;BMP_pressure;BME280_temperature;BME280_humidity;BME280_pressure;Samples;Min_cycle;Max_cycle;Signal;HPM_P1;HPM_P2
2021/06/19 00:01:37;;;;;;;2.13;2.03;;;26.30;41.00;;;;;;4970840;28;20287;-53
2021/06/19 00:04:04;;;;;;;2.08;1.98;;;26.30;41.00;;;;;;4973532;28;20200;-52
2021/06/19 00:06:30;;;;;;;2.40;2.20;;;26.30;41.00;;;;;;4973100;28;20212;-42
2021/06/19 00:08:57;;;;;;;2.45;2.25;;;26.30;41.00;;;;;;4973489;28;20692;-33
2021/06/19 00:11:23;;;;;;;2.40;2.20;;;26.30;41.00;;;;;;4972497;28;20562;-34
2021/06/19 00:13:50;;;;;;;2.40;2.00;;;26.30;41.00;;;;;;4973623;28;20636;-52
2021/06/19 00:16:16;;;;;;;2.22;2.03;;;26.30;41.00;;;;;;4972495;28;20287;-50
2021/06/19 00:18:42;;;;;;;2.40;2.20;;;26.30;41.00;;;;;;4973146;28;20323;-51
2021/06/19 00:21:09;;;;;;;2.20;2.00;;;26.30;41.00;;;;;;4972582;28;20379;-50
2021/06/19 00:23:35;;;;;;;2.30;2.10;;;26.30;41.00;;;;;;4973302;28;20343;-49
2021/06/19 00:26:02;;;;;;;2.83;2.30;;;26.30;40.90;;;;;;4972551;28;20201;-44
2021/06/19 00:28:28;;;;;;;2.10;1.95;;;26.30;40.90;;;;;;4972494;28;20225;-49
2021/06/19 00:30:55;;;;;;;2.13;2.00;;;26.30;40.90;;;;;;4971320;28;20205;-49
2021/06/19 00:33:21;;;;;;;2.28;2.10;;;26.30;40.90;;;;;;4973004;28;20211;-50
2021/06/19 00:35:48;;;;;;;2.00;1.90;;;26.30;40.90;;;;;;4972203;28;20200;-54
2021/06/19 00:38:14;;;;;;;1.80;1.70;;;26.30;40.90;;;;;;4972858;28;20760;-47
2021/06/19 00:40:41;;;;;;;1.95;1.85;;;26.30;40.90;;;;;;4971883;28;20204;-49
2021/06/19 00:43:07;;;;;;;2.53;2.33;;;26.30;40.90;;;;;;4972872;28;20205;-49
2021/06/19 00:45:34;;;;;;;2.20;2.10;;;26.30;41.00;;;;;;4972204;28;20205;-47
2021/06/19 00:48:00;;;;;;;1.88;1.70;;;26.30;40.90;;;;;;4971452;28;20205;-45
2021/06/19 00:50:26;;;;;;;2.55;2.35;;;26.30;41.00;;;;;;4971765;28;20212;-44
2021/06/19 00:52:53;;;;;;;2.30;2.20;;;26.30;41.00;;;;;;4972480;28;20216;-42
2021/06/19 00:55:19;;;;;;;2.35;2.15;;;26.30;41.00;;;;;;4972292;28;20205;-44
2021/06/19 00:57:46;;;;;;;2.22;2.13;;;26.30;41.00;;;;;;4971876;28;20251;-53
2021/06/19 01:00:12;;;;;;;2.13;1.95;;;26.30;41.00;;;;;;4970018;28;20210;-42
2021/06/19 01:02:39;;;;;;;2.00;1.90;;;26.30;41.00;;;;;;4952509;28;20201;-38
2021/06/19 01:05:05;;;;;;;2.10;2.00;;;26.30;41.00;;;;;;4969331;28;20669;-41
2021/06/19 01:07:32;;;;;;;2.08;1.90;;;26.30;41.00;;;;;;4952875;28;20688;-34
2021/06/19 01:09:58;;;;;;;2.17;1.98;;;26.30;41.00;;;;;;4970702;28;20307;-38
2021/06/19 01:12:25;;;;;;;2.50;2.13;;;26.30;41.00;;;;;;4972409;28;20205;-37
2021/06/19 01:14:51;;;;;;;2.28;2.08;;;26.30;41.00;;;;;;4971557;28;20213;-49
2021/06/19 01:17:19;;;;;;;2.42;2.22;;;26.20;40.90;;;;;;4971769;28;20211;-35
2021/06/19 01:19:45;;;;;;;2.42;2.03;;;26.20;40.90;;;;;;4971510;28;20256;-41
2021/06/19 01:22:11;;;;;;;2.13;1.92;;;26.20;40.90;;;;;;4972043;28;20200;-52
2021/06/19 01:24:38;;;;;;;1.88;1.77;;;26.30;41.00;;;;;;4974185;28;20207;-48
2021/06/19 01:27:04;;;;;;;2.33;2.13;;;26.30;41.00;;;;;;4972233;28;20230;-38
2021/06/19 01:29:31;;;;;;;2.10;2.00;;;26.30;41.00;;;;;;4970694;28;20223;-37
2021/06/19 01:31:57;;;;;;;2.25;1.90;;;26.30;41.00;;;;;;4972289;28;20208;-42
2021/06/19 01:34:24;;;;;;;2.03;1.92;;;26.30;41.00;;;;;;4971520;28;20201;-48
2021/06/19 01:36:50;;;;;;;2.30;2.10;;;26.30;41.00;;;;;;4972444;28;20207;-50
2021/06/19 01:39:16;;;;;;;2.30;2.10;;;26.20;40.90;;;;;;4968966;28;20239;-34
2021/06/19 01:41:43;;;;;;;1.98;1.88;;;26.20;40.90;;;;;;4972278;28;20216;-46
2021/06/19 01:44:09;;;;;;;2.17;2.08;;;26.20;40.90;;;;;;4970902;28;20201;-47
2021/06/19 01:46:36;;;;;;;2.33;2.13;;;26.30;41.00;;;;;;4971999;28;20205;-45
2021/06/19 01:49:02;;;;;;;2.28;2.08;;;26.20;40.90;;;;;;4969220;28;20231;-50
2021/06/19 01:51:29;;;;;;;2.20;2.03;;;26.20;40.90;;;;;;4971350;28;20208;-40
2021/06/19 01:53:55;;;;;;;2.20;2.10;;;26.30;41.00;;;;;;4970030;28;20205;-41
2021/06/19 01:56:22;;;;;;;2.25;2.05;;;26.20;40.90;;;;;;4970815;28;20205;-46
2021/06/19 01:58:48;;;;;;;2.38;2.17;;;26.30;41.00;;;;;;4970329;28;20236;-37
2021/06/19 02:01:15;;;;;;;2.28;2.10;;;26.20;40.90;;;;;;4971924;28;20212;-42
2021/06/19 02:03:41;;;;;;;2.08;1.95;;;26.20;40.90;;;;;;4968633;28;20226;-35
2021/06/19 02:06:08;;;;;;;1.90;1.80;;;26.30;41.00;;;;;;4971202;28;20234;-46
2021/06/19 02:08:34;;;;;;;2.00;1.90;;;26.30;41.10;;;;;;4969889;28;20220;-38
2021/06/19 02:11:01;;;;;;;2.10;2.00;;;26.20;41.00;;;;;;4972122;28;20211;-43
2021/06/19 02:13:27;;;;;;;2.00;1.90;;;26.20;41.00;;;;;;4974210;28;20215;-50
2021/06/19 02:15:54;;;;;;;2.13;2.00;;;26.20;41.00;;;;;;4974646;28;20203;-47
2021/06/19 02:18:20;;;;;;;1.98;1.88;;;26.20;40.90;;;;;;4974503;28;20238;-52
2021/06/19 02:20:51;;;;;;;2.45;2.25;;;26.20;40.90;;;;;;4964716;28;20225;-36
2021/06/19 02:23:18;;;;;;;2.58;2.38;;;26.30;41.00;;;;;;4971362;28;20200;-41
2021/06/19 02:25:46;;;;;;;2.50;2.25;;;26.20;41.00;;;;;;4974729;28;20204;-38
2021/06/19 02:28:12;;;;;;;1.77;1.67;;;26.20;41.00;;;;;;4973989;28;20336;-43
2021/06/19 02:30:39;;;;;;;2.38;2.17;;;26.20;41.70;;;;;;4974602;28;20204;-37
2021/06/19 02:33:05;;;;;;;2.08;1.85;;;26.20;41.00;;;;;;4974991;28;20204;-47
2021/06/19 02:35:32;;;;;;;2.20;2.00;;;26.20;41.00;;;;;;4974485;28;20206;-41
2021/06/19 02:37:59;;;;;;;2.05;1.95;;;26.20;41.00;;;;;;4974634;28;20236;-39
2021/06/19 02:40:25;;;;;;;2.53;2.17;;;26.20;41.00;;;;;;4974540;28;20576;-37
2021/06/19 02:42:51;;;;;;;2.05;1.70;;;26.20;41.00;;;;;;4974881;28;20546;-42
2021/06/19 02:45:18;;;;;;;2.08;1.98;;;26.30;41.00;;;;;;4975961;28;20589;-36
2021/06/19 02:47:44;;;;;;;1.92;1.83;;;26.30;41.00;;;;;;4987448;28;20719;-37
2021/06/19 02:50:11;;;;;;;2.20;2.00;;;26.30;41.20;;;;;;4974311;28;20645;-34
2021/06/19 02:52:40;;;;;;;2.30;2.05;;;26.30;41.30;;;;;;4974764;28;20611;-57
2021/06/19 02:55:07;;;;;;;2.50;2.30;;;26.20;41.30;;;;;;4973557;28;20212;-46
2021/06/19 02:57:33;;;;;;;4.00;2.00;;;26.20;41.30;;;;;;4972899;28;20212;-56
2021/06/19 03:00:00;;;;;;;2.22;2.05;;;26.30;41.40;;;;;;4974196;28;20375;-43
2021/06/19 03:02:26;;;;;;;2.25;2.08;;;26.20;41.30;;;;;;4974753;28;20230;-38
2021/06/19 03:04:53;;;;;;;2.20;2.00;;;26.30;41.40;;;;;;4970765;28;20239;-49
2021/06/19 03:07:19;;;;;;;1.90;1.80;;;26.20;41.30;;;;;;4973433;28;20215;-40
2021/06/19 03:09:46;;;;;;;2.10;2.00;;;26.20;41.30;;;;;;4974040;28;20219;-43
2021/06/19 03:12:12;;;;;;;2.05;1.95;;;26.20;41.30;;;;;;4973584;28;20197;-51
2021/06/19 03:14:38;;;;;;;2.38;2.03;;;26.20;41.30;;;;;;4972421;28;20206;-44
2021/06/19 03:17:05;;;;;;;1.90;1.80;;;26.20;41.30;;;;;;4973762;28;20205;-52
2021/06/19 03:19:31;;;;;;;1.90;1.80;;;26.20;41.30;;;;;;4972805;28;20232;-52
2021/06/19 03:21:58;;;;;;;2.33;2.20;;;26.30;41.40;;;;;;4974728;28;20248;-41
2021/06/19 03:24:24;;;;;;;2.10;1.90;;;26.20;41.30;;;;;;4972910;28;20387;-36
2021/06/19 03:26:51;;;;;;;2.20;2.00;;;26.20;41.30;;;;;;4974383;28;20223;-42
2021/06/19 03:29:17;;;;;;;2.25;2.13;;;26.30;41.40;;;;;;4973362;28;20724;-39
2021/06/19 03:31:44;;;;;;;2.20;2.00;;;26.20;41.30;;;;;;4974522;28;20576;-43
2021/06/19 03:34:10;;;;;;;2.00;1.90;;;26.20;41.30;;;;;;4973396;28;20892;-39
2021/06/19 03:36:37;;;;;;;2.03;1.92;;;26.20;41.30;;;;;;4974035;28;20538;-34
2021/06/19 03:39:03;;;;;;;2.45;2.25;;;26.20;41.30;;;;;;4973207;28;20633;-37
2021/06/19 03:41:30;;;;;;;1.98;1.88;;;26.20;41.30;;;;;;4974313;28;20573;-35
2021/06/19 03:43:56;;;;;;;2.00;1.90;;;26.20;41.30;;;;;;4965502;28;20572;-37
2021/06/19 03:46:23;;;;;;;1.92;1.83;;;26.20;41.30;;;;;;4972469;28;20196;-40
2021/06/19 03:48:49;;;;;;;2.47;2.28;;;26.20;41.30;;;;;;4973257;28;20225;-39
2021/06/19 03:51:16;;;;;;;1.85;1.70;;;26.20;41.30;;;;;;4973174;28;20215;-37
2021/06/19 03:53:42;;;;;;;2.30;2.20;;;26.20;41.30;;;;;;4970921;28;20204;-37
2021/06/19 03:56:09;;;;;;;2.17;2.08;;;26.20;41.20;;;;;;4968496;28;20653;-49
2021/06/19 03:58:35;;;;;;;2.65;2.10;;;26.20;41.20;;;;;;4972569;28;20706;-40
2021/06/19 04:01:01;;;;;;;2.30;2.10;;;26.20;41.30;;;;;;4973794;28;20668;-49
2021/06/19 04:03:28;;;;;;;2.10;1.95;;;26.20;41.20;;;;;;4972081;28;20200;-40
2021/06/19 04:05:55;;;;;;;1.90;1.80;;;26.20;41.30;;;;;;4972793;28;20215;-34
2021/06/19 04:08:21;;;;;;;1.90;1.80;;;26.20;41.20;;;;;;4970808;28;20238;-53
2021/06/19 04:10:48;;;;;;;2.10;2.00;;;26.20;41.20;;;;;;4972862;28;20208;-42
2021/06/19 04:13:14;;;;;;;2.30;2.10;;;26.20;41.20;;;;;;4973492;28;20244;-49
2021/06/19 04:15:40;;;;;;;2.83;1.70;;;26.20;41.20;;;;;;4963584;28;20222;-50
2021/06/19 04:18:07;;;;;;;2.35;2.15;;;26.20;41.20;;;;;;4972909;28;20235;-41
2021/06/19 04:20:33;;;;;;;2.20;2.00;;;26.20;41.20;;;;;;4973160;28;20207;-43
2021/06/19 04:23:00;;;;;;;2.03;1.92;;;26.20;41.30;;;;;;4973907;28;20207;-49
2021/06/19 04:25:26;;;;;;;3.40;2.03;;;26.20;41.30;;;;;;4971937;28;20197;-43
2021/06/19 04:27:53;;;;;;;2.25;2.15;;;26.20;41.30;;;;;;4972875;28;20224;-57
2021/06/19 04:30:19;;;;;;;2.25;2.05;;;26.20;41.20;;;;;;4972024;28;20211;-50
2021/06/19 04:32:45;;;;;;;2.85;1.90;;;26.20;41.90;;;;;;4973708;28;20211;-49
2021/06/19 04:35:13;;;;;;;2.38;2.17;;;26.20;41.30;;;;;;4972021;28;20211;-42
2021/06/19 04:37:40;;;;;;;2.15;2.05;;;26.20;41.30;;;;;;4972863;28;20232;-33
2021/06/19 04:40:10;;;;;;;2.28;2.08;;;26.30;41.40;;;;;;4954354;28;20318;-38
2021/06/19 04:42:39;;;;;;;2.10;1.75;;;26.30;41.30;;;;;;4973235;28;20308;-34
2021/06/19 04:45:06;;;;;;;2.17;1.98;;;26.30;41.30;;;;;;4961921;28;20615;-42
2021/06/19 04:47:33;;;;;;;2.05;1.95;;;26.30;41.30;;;;;;4972659;28;20616;-47
2021/06/19 04:50:00;;;;;;;2.10;1.90;;;26.30;41.30;;;;;;4972242;28;20223;-52
2021/06/19 04:52:27;;;;;;;2.28;2.08;;;26.30;41.30;;;;;;4972595;28;20212;-48
2021/06/19 04:54:53;;;;;;;2.28;2.00;;;26.20;41.30;;;;;;4970360;28;20205;-52
2021/06/19 04:57:19;;;;;;;2.10;1.90;;;26.20;41.30;;;;;;4969082;28;20235;-40
2021/06/19 04:59:46;;;;;;;2.72;2.00;;;26.20;41.30;;;;;;4972712;28;20271;-51
2021/06/19 05:02:12;;;;;;;2.45;2.03;;;26.20;41.30;;;;;;4971391;28;20586;-40
2021/06/19 05:04:39;;;;;;;5.00;2.00;;;26.30;41.30;;;;;;4971497;28;20231;-45
2021/06/19 05:07:05;;;;;;;2.33;1.80;;;26.30;41.30;;;;;;4970924;28;20657;-49
2021/06/19 05:09:32;;;;;;;2.10;2.00;;;26.30;41.30;;;;;;4971032;28;20619;-53
2021/06/19 05:11:58;;;;;;;2.00;1.90;;;26.20;41.20;;;;;;4971129;28;20565;-47
2021/06/19 05:14:25;;;;;;;2.00;1.90;;;26.30;41.30;;;;;;4971975;28;20693;-38
2021/06/19 05:16:52;;;;;;;2.30;2.10;;;26.30;41.30;;;;;;4971391;28;20204;-40
2021/06/19 05:19:19;;;;;;;2.28;1.95;;;26.30;41.30;;;;;;4970960;28;20708;-36
2021/06/19 05:21:45;;;;;;;2.15;2.05;;;26.30;41.30;;;;;;4971961;28;20204;-47
2021/06/19 05:24:12;;;;;;;2.03;1.90;;;26.30;41.30;;;;;;4971861;28;20201;-37
2021/06/19 05:26:38;;;;;;;2.25;2.05;;;26.30;41.30;;;;;;4967922;28;20204;-48
2021/06/19 05:29:05;;;;;;;2.00;1.80;;;26.30;41.20;;;;;;4971786;28;20760;-37
2021/06/19 05:31:31;;;;;;;2.20;2.00;;;26.30;41.20;;;;;;4970989;28;20205;-34
2021/06/19 05:33:58;;;;;;;1.70;1.60;;;26.30;41.30;;;;;;4972170;28;20220;-46
2021/06/19 05:36:24;;;;;;;1.98;1.88;;;26.30;41.30;;;;;;4970909;28;20201;-37
2021/06/19 05:38:50;;;;;;;2.50;2.03;;;26.30;41.40;;;;;;4970743;28;20243;-40
2021/06/19 05:41:17;;;;;;;2.00;1.90;;;26.30;41.40;;;;;;4970852;28;20213;-43
2021/06/19 05:43:43;;;;;;;2.20;1.77;;;26.30;41.40;;;;;;4971601;28;20755;-40
2021/06/19 05:46:10;;;;;;;2.10;2.00;;;26.30;41.50;;;;;;4973949;28;20290;-50
2021/06/19 05:48:36;;;;;;;2.25;1.77;;;26.30;41.40;;;;;;4989667;28;20291;-53
2021/06/19 05:51:03;;;;;;;1.90;1.80;;;26.30;41.50;;;;;;4971308;28;20219;-39
2021/06/19 05:53:29;;;;;;;1.75;1.65;;;26.30;41.50;;;;;;4971531;28;20204;-52
2021/06/19 05:55:56;;;;;;;2.00;1.90;;;26.30;41.50;;;;;;4961020;28;20208;-41
2021/06/19 05:58:22;;;;;;;1.90;1.80;;;26.30;41.50;;;;;;4969111;28;20230;-55
2021/06/19 06:00:48;;;;;;;2.97;2.13;;;26.30;41.50;;;;;;4971853;28;20200;-50
2021/06/19 06:03:15;;;;;;;2.00;1.90;;;26.30;41.50;;;;;;4971032;28;20196;-41
2021/06/19 06:05:42;;;;;;;2.40;2.20;;;26.30;41.50;;;;;;4970963;28;20207;-40
2021/06/19 06:08:09;;;;;;;2.10;1.90;;;26.30;41.50;;;;;;4969358;28;20606;-48
2021/06/19 06:10:37;;;;;;;2.28;1.98;;;26.30;41.60;;;;;;4971085;28;20503;-43
2021/06/19 06:13:04;;;;;;;2.45;2.08;;;26.30;41.50;;;;;;4970487;28;20200;-47
2021/06/19 06:15:30;;;;;;;2.40;2.20;;;26.30;41.50;;;;;;4970935;28;20331;-42
2021/06/19 06:17:56;;;;;;;2.20;2.00;;;26.30;41.50;;;;;;4970049;28;20227;-41
2021/06/19 06:20:23;;;;;;;4.32;1.60;;;26.30;41.50;;;;;;4971823;28;20241;-44
2021/06/19 06:22:51;;;;;;;2.20;2.00;;;26.30;41.50;;;;;;4971701;28;20210;-41
2021/06/19 06:25:18;;;;;;;1.90;1.80;;;26.30;41.50;;;;;;4967064;28;20211;-34
2021/06/19 06:27:44;;;;;;;1.90;1.80;;;26.40;41.60;;;;;;4973087;28;20229;-50
2021/06/19 06:30:10;;;;;;;2.05;1.95;;;26.40;41.70;;;;;;4968682;28;20208;-37
2021/06/19 06:32:37;;;;;;;2.05;1.88;;;26.40;41.70;;;;;;4969950;28;20356;-38
2021/06/19 06:35:04;;;;;;;2.63;2.20;;;26.40;41.60;;;;;;4968202;28;20207;-48
2021/06/19 06:37:31;;;;;;;2.53;1.80;;;26.40;41.70;;;;;;4982515;28;20243;-38
2021/06/19 06:39:57;;;;;;;3.63;1.80;;;26.40;41.70;;;;;;4970336;28;20240;-37
2021/06/19 06:42:24;;;;;;;2.10;1.90;;;26.40;42.10;;;;;;4970948;28;20249;-38
2021/06/19 06:44:50;;;;;;;5.18;2.42;;;26.50;42.00;;;;;;4967456;28;20232;-39
2021/06/19 06:47:17;;;;;;;2.53;1.90;;;26.50;41.90;;;;;;4974729;28;20876;-48
2021/06/19 06:49:43;;;;;;;2.22;1.73;;;26.50;41.90;;;;;;4977167;28;20224;-42
2021/06/19 06:52:10;;;;;;;2.47;1.70;;;26.50;41.90;;;;;;4969660;28;20215;-36
2021/06/19 06:54:39;;;;;;;4.47;1.90;;;26.50;42.10;;;;;;4985503;28;20205;-40
2021/06/19 06:57:06;;;;;;;3.20;2.40;;;26.60;42.50;;;;;;4971606;28;20224;-39
2021/06/19 06:59:32;;;;;;;4.03;3.63;;;26.60;43.00;;;;;;4971401;28;20736;-41
2021/06/19 07:01:58;;;;;;;5.47;3.13;;;26.50;43.20;;;;;;4969294;28;20666;-39
2021/06/19 07:04:25;;;;;;;2.72;2.53;;;26.50;43.40;;;;;;4974354;28;20284;-43
2021/06/19 07:06:51;;;;;;;3.97;2.97;;;26.50;43.10;;;;;;4973761;28;20250;-49
2021/06/19 07:09:18;;;;;;;5.90;2.90;;;26.50;42.80;;;;;;4973640;28;20234;-45
2021/06/19 07:11:44;;;;;;;8.90;3.60;;;26.50;42.70;;;;;;4980937;28;20211;-42
2021/06/19 07:14:11;;;;;;;7.65;3.45;;;26.60;42.80;;;;;;4983735;28;20204;-35
2021/06/19 07:16:37;;;;;;;7.60;3.30;;;26.60;42.80;;;;;;4978526;28;20704;-45
2021/06/19 07:19:04;;;;;;;17.17;4.38;;;26.60;43.10;;;;;;4972893;28;20599;-34
2021/06/19 07:21:30;;;;;;;5.18;3.22;;;26.60;43.40;;;;;;4973098;28;20569;-39
2021/06/19 07:23:57;;;;;;;8.95;3.50;;;26.60;44.60;;;;;;4975437;28;20232;-45
2021/06/19 07:26:23;;;;;;;10.98;4.10;;;26.60;44.60;;;;;;4982763;28;20195;-41
2021/06/19 07:28:50;;;;;;;6.43;4.00;;;26.60;44.90;;;;;;4981192;28;20208;-42
2021/06/19 07:31:16;;;;;;;8.27;3.85;;;26.50;44.30;;;;;;4967418;28;20213;-52
2021/06/19 07:33:42;;;;;;;7.80;4.13;;;26.50;44.80;;;;;;4961901;28;20223;-45
2021/06/19 07:36:09;;;;;;;9.15;3.58;;;26.50;44.40;;;;;;4974272;28;20205;-44
2021/06/19 07:38:35;;;;;;;9.10;4.38;;;26.50;44.60;;;;;;4972668;28;20220;-44
2021/06/19 07:41:02;;;;;;;9.45;4.75;;;26.50;44.80;;;;;;4972808;28;20236;-50
2021/06/19 07:43:28;;;;;;;10.63;4.43;;;26.50;46.30;;;;;;4973109;28;20285;-47
2021/06/19 07:45:56;;;;;;;11.68;5.82;;;26.50;46.20;;;;;;4971950;28;20215;-48
2021/06/19 07:48:22;;;;;;;12.75;5.95;;;26.50;46.00;;;;;;4972122;28;20555;-48
2021/06/19 07:50:49;;;;;;;8.93;5.63;;;26.30;46.70;;;;;;4972049;28;20606;-53
2021/06/19 07:53:15;;;;;;;8.57;4.90;;;26.40;47.20;;;;;;4973693;28;20205;-45
2021/06/19 07:55:42;;;;;;;8.15;5.15;;;26.50;46.30;;;;;;4972675;28;20209;-39
2021/06/19 07:58:08;;;;;;;11.70;4.75;;;26.50;46.40;;;;;;4973586;28;20232;-49
2021/06/19 08:00:35;;;;;;;11.88;4.72;;;26.50;46.30;;;;;;4972703;28;20304;-43
2021/06/19 08:03:01;;;;;;;12.02;4.95;;;26.50;46.90;;;;;;4973321;28;20220;-41
2021/06/19 08:05:28;;;;;;;9.38;5.05;;;26.50;47.00;;;;;;4965060;28;20201;-43
2021/06/19 08:07:55;;;;;;;8.65;4.53;;;26.60;47.10;;;;;;4972978;28;20267;-47
2021/06/19 08:10:21;;;;;;;6.38;4.50;;;26.60;47.20;;;;;;4968461;28;20207;-44
2021/06/19 08:12:48;;;;;;;8.65;4.95;;;26.60;48.40;;;;;;4972649;28;20205;-36
2021/06/19 08:15:14;;;;;;;11.23;4.97;;;26.60;47.40;;;;;;4972751;28;20204;-41
2021/06/19 08:17:40;;;;;;;6.55;4.63;;;26.60;47.60;;;;;;4992159;28;20224;-35
2021/06/19 08:20:07;;;;;;;7.85;4.30;;;26.60;47.50;;;;;;4973293;28;20232;-45
2021/06/19 08:22:33;;;;;;;6.72;3.72;;;26.70;48.90;;;;;;4972259;28;20200;-55
2021/06/19 08:25:00;;;;;;;8.85;4.35;;;26.70;48.30;;;;;;4969186;28;20210;-44
2021/06/19 08:27:26;;;;;;;5.18;4.13;;;26.70;48.80;;;;;;4967187;28;20224;-36
2021/06/19 08:29:53;;;;;;;6.88;4.25;;;26.70;49.30;;;;;;4965768;28;20308;-41
2021/06/19 08:32:19;;;;;;;6.88;4.15;;;26.70;49.10;;;;;;4974806;28;20211;-44
2021/06/19 08:34:45;;;;;;;6.10;3.83;;;26.70;48.40;;;;;;4972952;28;20206;-45
2021/06/19 08:37:12;;;;;;;9.30;4.40;;;26.70;48.00;;;;;;4970395;28;20220;-52
2021/06/19 08:39:38;;;;;;;8.55;3.83;;;26.70;48.00;;;;;;4972274;28;20224;-46
2021/06/19 08:42:05;;;;;;;8.25;4.35;;;26.60;48.00;;;;;;4973137;28;20200;-47
2021/06/19 08:44:31;;;;;;;5.47;3.95;;;26.70;47.90;;;;;;4973036;28;20208;-50
2021/06/19 08:46:58;;;;;;;5.85;4.10;;;26.60;47.80;;;;;;4972903;28;20235;-43
2021/06/19 08:49:24;;;;;;;6.25;3.70;;;26.70;47.60;;;;;;4972048;28;20226;-46
2021/06/19 08:51:52;;;;;;;6.28;4.22;;;26.70;47.60;;;;;;4954391;28;20211;-45
2021/06/19 08:54:19;;;;;;;6.03;3.58;;;26.70;47.90;;;;;;4953784;28;20201;-41
2021/06/19 08:56:45;;;;;;;5.63;3.10;;;26.60;47.30;;;;;;4953763;28;20307;-41
2021/06/19 08:59:12;;;;;;;3.53;3.22;;;26.60;47.60;;;;;;4952841;28;20209;-37
2021/06/19 09:01:39;;;;;;;5.63;3.40;;;26.60;47.80;;;;;;4978456;28;20236;-42
2021/06/19 09:04:05;;;;;;;5.13;3.40;;;26.60;47.60;;;;;;4972757;28;20267;-37
2021/06/19 09:06:31;;;;;;;3.65;3.05;;;26.70;47.70;;;;;;4971907;28;20238;-47
2021/06/19 09:08:58;;;;;;;4.88;3.00;;;26.60;47.60;;;;;;4966211;28;20205;-44
2021/06/19 09:11:24;;;;;;;4.03;3.13;;;26.60;47.50;;;;;;4971449;28;20203;-43
2021/06/19 09:13:51;;;;;;;4.57;3.30;;;26.60;47.30;;;;;;4972652;28;20200;-45
2021/06/19 09:16:17;;;;;;;4.75;3.20;;;26.70;47.70;;;;;;4972364;28;20228;-47
2021/06/19 09:18:44;;;;;;;5.00;3.47;;;26.60;47.60;;;;;;4972690;28;20220;-34
2021/06/19 09:21:10;;;;;;;6.75;3.53;;;26.60;47.60;;;;;;4972074;28;20331;-48
2021/06/19 09:23:36;;;;;;;3.97;3.10;;;26.60;47.50;;;;;;4972001;28;20680;-40
2021/06/19 09:26:03;;;;;;;4.90;3.20;;;26.70;47.70;;;;;;4971755;28;20657;-38
2021/06/19 09:28:29;;;;;;;5.18;3.30;;;26.60;47.40;;;;;;4962256;28;20209;-34
2021/06/19 09:30:56;;;;;;;5.20;3.90;;;26.70;47.70;;;;;;4970344;28;20215;-39
2021/06/19 09:33:22;;;;;;;5.03;3.47;;;26.70;48.50;;;;;;4972331;28;20204;-37
2021/06/19 09:35:49;;;;;;;4.90;3.38;;;26.70;47.80;;;;;;4967582;28;20219;-39
2021/06/19 09:38:15;;;;;;;3.85;3.30;;;26.70;48.10;;;;;;4986289;28;20771;-45
2021/06/19 09:40:42;;;;;;;4.43;3.40;;;26.70;48.80;;;;;;4975636;28;20295;-35
2021/06/19 09:43:08;;;;;;;5.57;3.30;;;26.70;49.00;;;;;;4971189;28;20200;-37
2021/06/19 09:45:35;;;;;;;5.82;3.65;;;26.70;49.70;;;;;;4971185;28;20613;-38
2021/06/19 09:48:01;;;;;;;4.88;3.40;;;26.70;49.70;;;;;;4969954;28;20271;-34
2021/06/19 09:50:28;;;;;;;5.65;3.60;;;26.70;49.40;;;;;;4972360;28;20643;-44
2021/06/19 09:52:54;;;;;;;5.90;3.63;;;26.70;49.70;;;;;;4968861;28;20736;-34
2021/06/19 09:55:21;;;;;;;5.15;3.60;;;26.70;49.70;;;;;;4969842;28;20208;-42
2021/06/19 09:57:48;;;;;;;4.53;3.45;;;26.70;49.70;;;;;;4966786;28;20224;-44
2021/06/19 10:00:14;;;;;;;6.20;3.78;;;26.70;49.70;;;;;;4970845;28;20236;-46
2021/06/19 10:02:41;;;;;;;5.65;3.88;;;26.70;49.70;;;;;;4971814;28;20304;-45
2021/06/19 10:05:07;;;;;;;5.25;3.33;;;26.70;49.70;;;;;;4971311;28;20200;-37
2021/06/19 10:07:35;;;;;;;5.45;3.67;;;26.70;49.70;;;;;;4968575;28;20224;-40
2021/06/19 10:10:01;;;;;;;4.90;3.72;;;26.70;49.50;;;;;;4970353;28;20212;-45
2021/06/19 10:12:28;;;;;;;5.72;3.53;;;26.70;49.70;;;;;;4970601;28;20232;-35
2021/06/19 10:14:54;;;;;;;5.78;3.60;;;26.70;49.70;;;;;;4971724;28;20637;-40
2021/06/19 10:17:21;;;;;;;5.00;3.63;;;26.70;49.70;;;;;;4969383;28;20622;-37
2021/06/19 10:19:47;;;;;;;6.15;4.30;;;26.70;49.60;;;;;;4966511;28;20311;-34
2021/06/19 10:22:13;;;;;;;5.47;3.78;;;26.70;49.70;;;;;;4961952;28;20328;-39
2021/06/19 10:24:41;;;;;;;4.32;3.42;;;26.70;49.50;;;;;;4979144;28;20555;-39
2021/06/19 10:27:08;;;;;;;4.38;3.97;;;26.70;49.30;;;;;;4969839;28;20224;-47
2021/06/19 10:29:34;;;;;;;4.82;4.15;;;26.80;49.70;;;;;;4967226;28;20211;-33
2021/06/19 10:32:01;;;;;;;6.50;4.10;;;26.80;49.80;;;;;;4966399;28;20201;-37
2021/06/19 10:34:28;;;;;;;4.45;3.90;;;26.70;49.70;;;;;;4974960;28;20201;-38
2021/06/19 10:36:54;;;;;;;5.35;4.07;;;26.70;49.40;;;;;;4974053;28;20230;-35
2021/06/19 10:39:21;;;;;;;6.25;4.30;;;26.70;49.70;;;;;;4973930;28;20283;-35
2021/06/19 10:41:48;;;;;;;6.68;4.13;;;26.70;49.70;;;;;;4974574;28;20236;-41
2021/06/19 10:44:14;;;;;;;4.40;4.00;;;26.70;49.30;;;;;;4973635;28;20204;-44
2021/06/19 10:46:40;;;;;;;6.07;4.35;;;26.70;49.30;;;;;;4974836;28;20238;-42
2021/06/19 10:49:07;;;;;;;5.65;4.22;;;26.70;49.10;;;;;;4972094;28;22295;-36
2021/06/19 10:51:33;;;;;;;5.18;4.55;;;26.70;49.00;;;;;;4974631;28;20584;-40
2021/06/19 10:54:00;;;;;;;6.22;4.10;;;26.70;48.90;;;;;;4974926;28;20291;-49
2021/06/19 10:56:26;;;;;;;5.35;4.20;;;26.70;48.90;;;;;;4973611;28;20223;-35
2021/06/19 10:58:53;;;;;;;6.57;4.80;;;26.70;48.80;;;;;;4981677;28;20197;-43
2021/06/19 11:01:19;;;;;;;6.57;4.18;;;26.70;48.70;;;;;;4972298;28;20279;-38
2021/06/19 11:03:47;;;;;;;5.13;4.50;;;26.70;48.50;;;;;;4968870;28;20207;-39
2021/06/19 11:06:13;;;;;;;7.63;4.90;;;26.70;48.50;;;;;;4970488;28;20304;-37
2021/06/19 11:08:40;;;;;;;5.70;4.50;;;26.70;48.40;;;;;;4965224;28;20212;-51
2021/06/19 11:11:06;;;;;;;4.80;4.35;;;26.70;48.30;;;;;;4973854;28;20638;-39
2021/06/19 11:13:32;;;;;;;6.68;4.60;;;26.70;48.20;;;;;;4973117;28;20292;-38
2021/06/19 11:15:59;;;;;;;4.75;4.35;;;26.70;48.20;;;;;;4974424;28;20744;-39
2021/06/19 11:18:26;;;;;;;5.18;4.65;;;26.70;48.20;;;;;;4971765;28;20219;-49
2021/06/19 11:20:52;;;;;;;5.15;4.65;;;26.70;48.00;;;;;;4970112;28;20251;-46
2021/06/19 11:23:19;;;;;;;5.40;4.38;;;26.70;48.00;;;;;;4972990;28;20677;-38
2021/06/19 11:26:01;;;;;;;5.85;5.22;;;26.70;47.90;;;;;;4970237;28;20225;-54
2021/06/19 11:28:29;;;;;;;4.85;4.43;;;26.70;47.80;;;;;;4970622;28;20347;-46
2021/06/19 11:30:55;;;;;;;5.85;4.88;;;26.70;47.70;;;;;;4973997;28;20224;-39
2021/06/19 11:33:23;;;;;;;5.78;4.22;;;26.70;47.70;;;;;;4974172;28;20292;-42
2021/06/19 11:35:50;;;;;;;5.00;4.60;;;26.70;47.70;;;;;;4973427;28;20642;-48
2021/06/19 11:38:16;;;;;;;6.05;5.10;;;26.70;47.50;;;;;;4969079;28;20295;-43
2021/06/19 11:40:43;;;;;;;8.88;5.38;;;26.70;47.50;;;;;;4965642;28;20224;-49
2021/06/19 11:43:09;;;;;;;6.20;5.05;;;26.70;47.60;;;;;;4973077;28;20239;-38
2021/06/19 11:45:36;;;;;;;15.10;8.10;;;26.70;47.80;;;;;;4972679;28;20733;-53
2021/06/19 11:48:02;;;;;;;22.70;11.80;;;26.70;47.90;;;;;;4955618;28;20265;-46
2021/06/19 11:50:29;;;;;;;51.72;27.52;;;26.70;48.10;;;;;;4972165;28;20296;-39
2021/06/19 11:52:55;;;;;;;62.05;35.45;;;26.70;48.30;;;;;;4971525;28;20196;-43
2021/06/19 11:55:22;;;;;;;67.25;39.88;;;26.70;48.60;;;;;;4973682;28;20228;-46
2021/06/19 11:57:48;;;;;;;64.65;38.38;;;26.70;48.90;;;;;;4971511;28;20205;-54
2021/06/19 12:00:18;;;;;;;59.78;35.30;;;26.70;49.20;;;;;;4973444;28;20224;-43
2021/06/19 12:02:45;;;;;;;50.72;33.03;;;26.80;49.00;;;;;;4971227;28;20209;-46
2021/06/19 12:05:11;;;;;;;52.95;31.00;;;26.80;49.00;;;;;;4973350;28;20311;-50
2021/06/19 12:07:38;;;;;;;43.90;28.05;;;26.70;48.90;;;;;;4971364;28;20204;-57
2021/06/19 12:10:04;;;;;;;40.00;25.73;;;26.80;48.70;;;;;;4972217;28;20212;-54
2021/06/19 12:12:31;;;;;;;45.67;25.58;;;26.80;48.70;;;;;;4969726;28;20574;-48
2021/06/19 12:14:57;;;;;;;41.45;25.17;;;26.70;48.60;;;;;;4973158;28;20244;-43
2021/06/19 12:17:24;;;;;;;39.00;23.73;;;26.70;48.50;;;;;;4972967;28;20208;-45
2021/06/19 12:19:50;;;;;;;33.53;21.98;;;26.80;48.50;;;;;;4971663;28;20208;-46
2021/06/19 12:22:17;;;;;;;37.42;21.08;;;26.70;48.30;;;;;;4972608;28;20236;-45
2021/06/19 12:24:43;;;;;;;35.65;20.55;;;26.70;48.20;;;;;;4971679;28;20347;-46
2021/06/19 12:27:10;;;;;;;28.40;18.63;;;26.70;48.80;;;;;;4970158;28;20201;-52
2021/06/19 12:29:37;;;;;;;24.98;18.27;;;26.70;47.90;;;;;;4971421;28;20205;-54
2021/06/19 12:32:03;;;;;;;27.77;18.40;;;26.70;47.80;;;;;;4971672;28;20201;-47
2021/06/19 12:34:29;;;;;;;26.63;16.33;;;26.80;47.90;;;;;;4971546;28;20296;-44
2021/06/19 12:36:56;;;;;;;25.65;16.75;;;26.70;47.70;;;;;;4972766;28;20212;-42
2021/06/19 12:39:22;;;;;;;27.92;16.83;;;26.70;47.50;;;;;;4967523;28;20211;-36
2021/06/19 12:41:49;;;;;;;23.95;15.27;;;26.70;48.30;;;;;;4962387;28;20235;-43